createdAt,value
2023-01-22T00:00:22.518Z,13.18
2023-01-22T00:02:51.968Z,13.83
2023-01-22T00:05:22.121Z,13.80
2023-01-22T00:07:51.554Z,13.03
2023-01-22T00:10:20.975Z,15.72
2023-01-22T00:12:50.433Z,13.20
2023-01-22T00:15:19.866Z,12.70
2023-01-22T00:17:49.268Z,12.68
2023-01-22T00:20:20.478Z,16.70
2023-01-22T00:22:50.668Z,12.57
2023-01-22T00:25:20.220Z,13.90
2023-01-22T00:27:49.644Z,16.42
2023-01-22T00:30:19.428Z,13.35
2023-01-22T00:32:50.456Z,13.28
2023-01-22T00:35:19.866Z,13.20
2023-01-22T00:37:50.193Z,12.63
2023-01-22T00:40:20.147Z,16.60
2023-01-22T00:42:50.185Z,13.83
2023-01-22T00:45:19.671Z,12.68
2023-01-22T00:47:49.509Z,13.15
2023-01-22T00:50:20.423Z,15.50
2023-01-22T00:52:50.668Z,14.95
2023-01-22T00:55:20.278Z,14.83
2023-01-22T00:57:50.207Z,13.48
2023-01-22T01:00:20.564Z,14.47
2023-01-22T01:03:08.820Z,12.73
2023-01-22T01:05:38.244Z,15.93
2023-01-22T01:08:07.729Z,12.30
2023-01-22T01:10:37.166Z,14.45
2023-01-22T01:13:06.796Z,13.43
2023-01-22T01:15:36.221Z,13.48
2023-01-22T01:18:06.203Z,12.50
2023-01-22T01:20:36.329Z,13.93
2023-01-22T01:23:09.520Z,12.05
2023-01-22T01:25:42.550Z,13.10
2023-01-22T01:28:12.119Z,14.30
2023-01-22T01:30:41.659Z,14.33
2023-01-22T01:33:11.150Z,13.43
2023-01-22T01:35:40.835Z,12.23
2023-01-22T01:38:10.387Z,11.95
2023-01-22T01:40:46.290Z,13.08
2023-01-22T01:43:18.497Z,13.40
2023-01-22T01:45:49.583Z,13.15
2023-01-22T01:48:28.835Z,12.37
2023-01-22T01:51:16.083Z,14.05
2023-01-22T01:53:48.754Z,11.65
2023-01-22T01:56:27.018Z,12.93
2023-01-22T01:59:02.140Z,15.03
2023-01-22T02:01:34.246Z,13.88
2023-01-22T02:04:05.211Z,12.68
2023-01-22T02:06:34.665Z,13.80
2023-01-22T02:09:05.282Z,12.65
2023-01-22T02:11:37.321Z,13.75
2023-01-22T02:14:10.166Z,12.18
2023-01-22T02:16:39.967Z,11.57
2023-01-22T02:19:10.096Z,13.65
2023-01-22T02:21:42.414Z,13.90
2023-01-22T02:24:18.000Z,13.48
2023-01-22T02:26:49.174Z,14.80
2023-01-22T02:29:20.304Z,12.25
2023-01-22T02:31:50.050Z,11.73
2023-01-22T02:34:22.857Z,14.05
2023-01-22T02:36:53.739Z,14.60
2023-01-22T02:39:23.319Z,14.78
2023-01-22T02:41:53.091Z,12.93
2023-01-22T02:44:23.055Z,11.50
2023-01-22T02:46:52.557Z,13.10
2023-01-22T02:49:21.981Z,15.60
2023-01-22T02:51:52.776Z,13.45
2023-01-22T02:54:22.570Z,15.90
2023-01-22T02:56:53.432Z,14.18
2023-01-22T02:59:23.106Z,13.93
2023-01-22T03:01:52.660Z,13.98
2023-01-22T03:04:22.222Z,12.58
2023-01-22T03:06:51.644Z,14.10
2023-01-22T03:09:21.143Z,12.55
2023-01-22T03:11:50.813Z,13.95
2023-01-22T03:14:39.922Z,12.73
2023-01-22T03:17:28.710Z,13.83
2023-01-22T03:20:18.168Z,13.68
2023-01-22T03:22:50.342Z,12.65
2023-01-22T03:25:22.306Z,15.10
2023-01-22T03:28:13.314Z,14.97
2023-01-22T03:30:50.485Z,16.32
2023-01-22T03:33:20.167Z,15.30
2023-01-22T03:35:50.650Z,15.18
2023-01-22T03:38:21.903Z,13.35
2023-01-22T03:40:51.413Z,12.68
2023-01-22T03:43:21.398Z,18.35
2023-01-22T03:45:51.340Z,15.23
2023-01-22T03:48:21.689Z,14.93
2023-01-22T03:50:51.606Z,14.05
2023-01-22T03:53:21.305Z,17.15
2023-01-22T03:56:02.172Z,14.18
2023-01-22T03:58:33.675Z,13.58
2023-01-22T04:01:09.076Z,16.48
2023-01-22T04:03:40.162Z,17.17
2023-01-22T04:06:11.511Z,15.45
2023-01-22T04:08:43.122Z,15.43
2023-01-22T04:11:13.562Z,14.40
2023-01-22T04:13:44.445Z,14.03
2023-01-22T04:16:15.673Z,15.78
2023-01-22T04:19:03.231Z,14.23
2023-01-22T04:21:34.360Z,16.55
2023-01-22T04:24:06.067Z,15.58
2023-01-22T04:26:35.677Z,15.58
2023-01-22T04:29:05.776Z,16.75
2023-01-22T04:31:36.009Z,17.12
2023-01-22T04:34:10.440Z,18.82
2023-01-22T04:36:44.937Z,15.40
2023-01-22T04:39:14.451Z,17.15
2023-01-22T04:41:43.893Z,15.95
2023-01-22T04:44:13.507Z,15.30
2023-01-22T04:46:43.989Z,17.32
2023-01-22T04:49:15.092Z,16.75
2023-01-22T04:51:45.514Z,16.87
2023-01-22T04:54:18.384Z,19.15
2023-01-22T04:56:47.962Z,19.70
2023-01-22T04:59:17.663Z,14.47
2023-01-22T05:01:47.533Z,19.20
2023-01-22T05:04:17.661Z,17.10
2023-01-22T05:06:47.140Z,19.57
2023-01-22T05:09:16.870Z,18.55
2023-01-22T05:11:57.410Z,17.23
2023-01-22T05:14:27.812Z,17.07
2023-01-22T05:16:57.385Z,18.77
2023-01-22T05:19:27.471Z,16.57
2023-01-22T05:21:57.657Z,18.07
2023-01-22T05:24:30.656Z,19.07
2023-01-22T05:27:00.942Z,21.05
2023-01-22T05:29:32.140Z,21.45
2023-01-22T05:32:06.363Z,23.45
2023-01-22T05:34:37.604Z,19.02
2023-01-22T05:37:09.269Z,19.83
2023-01-22T05:39:39.161Z,19.30
2023-01-22T05:42:17.337Z,18.77
2023-01-22T05:44:48.896Z,22.07
2023-01-22T05:47:20.272Z,20.00
2023-01-22T05:50:00.949Z,22.55
2023-01-22T05:52:30.446Z,21.50
2023-01-22T05:55:01.853Z,24.53
2023-01-22T05:57:34.619Z,19.32
2023-01-22T06:00:07.163Z,18.67
2023-01-22T06:02:38.328Z,20.72
2023-01-22T06:05:09.679Z,22.13
2023-01-22T06:07:39.173Z,22.07
2023-01-22T06:10:09.657Z,24.75
2023-01-22T06:12:40.841Z,22.13
2023-01-22T06:15:12.999Z,21.25
2023-01-22T06:17:44.130Z,23.15
2023-01-22T06:20:13.845Z,22.00
2023-01-22T06:22:43.275Z,20.43
2023-01-22T06:25:13.032Z,23.63
2023-01-22T06:27:47.852Z,21.40
2023-01-22T06:30:17.993Z,23.40
2023-01-22T06:32:47.772Z,19.90
2023-01-22T06:35:17.441Z,21.60
2023-01-22T06:37:46.938Z,22.45
2023-01-22T06:40:16.857Z,22.85
2023-01-22T06:42:48.234Z,25.23
2023-01-22T06:45:18.909Z,22.60
2023-01-22T06:47:50.439Z,22.97
2023-01-22T06:50:20.334Z,23.32
2023-01-22T06:52:50.425Z,24.80
2023-01-22T06:55:20.630Z,27.02
2023-01-22T06:57:50.124Z,29.30
2023-01-22T07:00:20.653Z,28.57
2023-01-22T07:02:50.753Z,24.27
2023-01-22T07:05:20.292Z,26.52
2023-01-22T07:07:49.911Z,25.37
2023-01-22T07:10:19.707Z,26.17
2023-01-22T07:12:50.458Z,27.48
2023-01-22T07:15:19.890Z,26.45
2023-01-22T07:17:53.549Z,27.85
2023-01-22T07:32:48.988Z,27.45
2023-01-22T07:35:19.264Z,30.92
2023-01-22T07:37:56.867Z,27.80
2023-01-22T07:40:27.023Z,29.25
2023-01-22T07:42:57.172Z,31.45
2023-01-22T07:45:26.967Z,29.98
2023-01-22T07:47:59.697Z,30.75
2023-01-22T07:50:31.763Z,29.45
2023-01-22T07:55:33.422Z,29.80
2023-01-22T07:58:05.595Z,32.60
2023-01-22T08:00:36.763Z,26.10
2023-01-22T08:03:09.490Z,33.53
2023-01-22T08:05:42.892Z,29.30
2023-01-22T08:08:23.257Z,30.90
2023-01-22T08:10:52.767Z,30.60
2023-01-22T08:13:22.196Z,30.05
2023-01-22T08:15:51.680Z,29.63
2023-01-22T08:18:22.964Z,32.60
2023-01-22T08:20:52.323Z,36.00
2023-01-22T08:23:22.296Z,31.73
2023-01-22T08:25:51.771Z,32.90
2023-01-22T08:28:21.221Z,30.52
2023-01-22T08:30:50.915Z,35.23
2023-01-22T08:33:20.575Z,31.60
2023-01-22T08:35:50.276Z,31.27
2023-01-22T08:38:19.870Z,32.60
2023-01-22T08:40:53.428Z,36.33
2023-01-22T08:43:23.214Z,30.35
2023-01-22T08:45:52.649Z,36.10
2023-01-22T08:48:22.144Z,30.08
2023-01-22T08:50:51.669Z,31.60
2023-01-22T08:55:52.565Z,32.48
2023-01-22T08:58:23.984Z,32.37
2023-01-22T09:00:54.769Z,36.95
2023-01-22T09:03:24.909Z,32.45
2023-01-22T09:05:54.498Z,36.13
2023-01-22T09:08:23.983Z,33.90
2023-01-22T09:10:53.496Z,34.18
2023-01-22T09:13:23.586Z,37.17
2023-01-22T09:15:54.552Z,41.35
2023-01-22T09:18:24.233Z,35.00
2023-01-22T09:20:53.757Z,35.73
2023-01-22T09:23:23.330Z,31.65
2023-01-22T09:25:52.849Z,29.82
2023-01-22T09:28:22.263Z,34.45
2023-01-22T09:30:52.752Z,38.08
2023-01-22T09:33:22.322Z,39.03
2023-01-22T09:35:51.752Z,36.80
2023-01-22T09:38:21.258Z,35.17
2023-01-22T09:40:55.320Z,37.20
2023-01-22T09:43:30.600Z,36.87
2023-01-22T09:46:06.216Z,34.13
2023-01-22T09:48:41.868Z,37.80
2023-01-22T09:51:14.528Z,41.15
2023-01-22T09:53:46.910Z,40.80
2023-01-22T09:56:22.255Z,34.40
2023-01-22T09:58:53.237Z,34.73
2023-01-22T10:01:24.661Z,34.55
2023-01-22T10:03:57.552Z,37.50
2023-01-22T10:06:28.581Z,37.38
2023-01-22T10:09:09.729Z,37.50
2023-01-22T10:11:40.015Z,37.73
2023-01-22T10:14:12.495Z,38.80
2023-01-22T10:16:42.285Z,36.50
2023-01-22T10:19:27.046Z,36.17
2023-01-22T10:21:59.597Z,34.98
2023-01-22T10:24:30.212Z,35.05
2023-01-22T10:27:02.791Z,39.78
2023-01-22T10:29:37.949Z,35.88
2023-01-22T10:32:25.716Z,39.40
2023-01-22T10:35:03.586Z,41.23
2023-01-22T10:37:45.063Z,38.48
2023-01-22T10:40:38.660Z,39.60
2023-01-22T10:43:17.690Z,41.13
2023-01-22T10:46:02.058Z,37.50
2023-01-22T10:48:32.010Z,41.40
2023-01-22T10:51:18.870Z,42.93
2023-01-22T10:53:51.441Z,41.48
2023-01-22T10:56:32.474Z,38.15
2023-01-22T10:59:05.664Z,37.83
2023-01-22T11:01:43.199Z,39.03
2023-01-22T11:04:24.100Z,39.60
2023-01-22T11:06:56.608Z,36.05
2023-01-22T11:09:40.860Z,38.00
2023-01-22T11:12:26.232Z,39.00
2023-01-22T11:15:14.347Z,33.33
2023-01-22T11:17:46.889Z,36.45
2023-01-22T11:20:31.505Z,39.08
2023-01-22T11:23:12.944Z,40.40
2023-01-22T11:26:02.657Z,38.00
2023-01-22T11:28:36.789Z,37.30
2023-01-22T11:31:24.685Z,40.43
2023-01-22T11:34:20.069Z,40.85
2023-01-22T11:37:01.975Z,42.83
2023-01-22T11:39:46.353Z,38.53
2023-01-22T11:42:36.370Z,38.78
2023-01-22T11:45:26.717Z,42.85
2023-01-22T11:48:18.739Z,37.35
2023-01-22T11:50:51.327Z,43.80
2023-01-22T11:53:41.889Z,36.90
2023-01-22T11:56:35.358Z,44.75
2023-01-22T11:59:24.900Z,39.23
2023-01-22T12:02:13.827Z,37.20
2023-01-22T12:04:55.073Z,38.80
2023-01-22T12:07:35.491Z,40.90
2023-01-22T12:10:08.383Z,37.88
2023-01-22T12:12:46.613Z,39.55
2023-01-22T12:15:28.207Z,39.55
2023-01-22T12:18:16.957Z,41.37
2023-01-22T12:20:55.217Z,41.02
2023-01-22T12:23:27.723Z,40.45
2023-01-22T12:26:00.312Z,38.28
2023-01-22T12:28:38.635Z,41.35
2023-01-22T12:31:20.100Z,38.98
2023-01-22T12:33:49.792Z,40.80
2023-01-22T12:36:22.292Z,39.88
2023-01-22T12:39:11.377Z,39.38
2023-01-22T12:41:46.835Z,41.77
2023-01-22T12:44:22.106Z,43.33
2023-01-22T12:47:18.078Z,42.00
2023-01-22T12:49:50.341Z,43.58
2023-01-22T12:54:59.676Z,46.50
2023-01-22T12:57:35.149Z,47.70
2023-01-22T13:00:24.771Z,43.05
2023-01-22T13:02:54.256Z,41.00
2023-01-22T13:05:29.538Z,47.75
2023-01-22T13:08:10.565Z,46.98
2023-01-22T13:10:40.947Z,42.03
2023-01-22T13:13:25.626Z,48.78
2023-01-22T13:15:58.296Z,47.90
2023-01-22T13:18:31.662Z,45.28
2023-01-22T13:23:43.308Z,50.43
2023-01-22T13:26:25.093Z,46.08
2023-01-22T13:28:57.923Z,45.25
2023-01-22T13:31:27.684Z,44.42
2023-01-22T13:34:00.317Z,45.75
2023-01-22T13:36:29.948Z,45.52
2023-01-22T13:39:00.492Z,45.25
2023-01-22T13:41:33.649Z,45.08
2023-01-22T13:44:05.028Z,50.03
2023-01-22T13:46:37.628Z,46.63
2023-01-22T13:51:38.506Z,44.63
2023-01-22T13:54:08.758Z,46.42
2023-01-22T13:56:38.377Z,45.85
2023-01-22T13:59:11.012Z,49.55
2023-01-22T14:01:40.501Z,47.90
2023-01-22T14:04:28.395Z,49.45
2023-01-22T14:06:57.993Z,58.55
2023-01-22T14:09:33.155Z,46.13
2023-01-22T14:12:14.937Z,53.70
2023-01-22T14:14:44.877Z,50.55
2023-01-22T14:17:34.646Z,58.67
2023-01-22T14:20:05.114Z,64.30
2023-01-22T14:22:34.619Z,54.33
2023-01-22T14:25:04.725Z,60.27
2023-01-22T14:27:43.303Z,74.77
2023-01-22T14:30:15.520Z,53.87
2023-01-22T14:32:46.012Z,73.67
2023-01-22T14:35:20.262Z,64.70
2023-01-22T14:37:50.560Z,54.27
2023-01-22T14:40:21.832Z,53.20
2023-01-22T14:47:52.749Z,53.20
2023-01-22T14:50:23.611Z,54.90
2023-01-22T14:52:53.405Z,52.88
2023-01-22T14:55:22.967Z,58.52
2023-01-22T14:57:52.510Z,55.12
2023-01-22T15:00:22.728Z,51.60
2023-01-22T15:02:57.503Z,59.67
2023-01-22T15:05:28.712Z,63.35
2023-01-22T15:07:59.070Z,52.90
2023-01-22T15:10:28.987Z,57.75
2023-01-22T15:12:59.043Z,54.83
2023-01-22T15:15:28.699Z,63.40
2023-01-22T15:17:59.149Z,52.53
2023-01-22T15:20:28.605Z,54.08
2023-01-22T15:22:58.104Z,57.03
2023-01-22T15:25:27.548Z,54.83
2023-01-22T15:27:57.024Z,56.33
2023-01-22T15:30:26.636Z,60.50
2023-01-22T15:32:56.052Z,61.02
2023-01-22T15:35:25.840Z,72.15
2023-01-22T15:37:55.271Z,66.02
2023-01-22T15:40:24.701Z,67.03
2023-01-22T15:42:54.170Z,68.35
2023-01-22T15:45:23.607Z,72.87
2023-01-22T15:47:54.181Z,64.90
2023-01-22T15:50:23.688Z,78.87
2023-01-22T15:52:59.103Z,66.43
2023-01-22T15:55:28.548Z,66.10
2023-01-22T15:58:00.185Z,64.95
2023-01-22T16:00:29.651Z,60.95
2023-01-22T16:02:59.099Z,59.98
2023-01-22T16:05:29.677Z,55.38
2023-01-22T16:07:59.134Z,64.10
2023-01-22T16:10:28.944Z,59.07
2023-01-22T16:12:58.560Z,86.90
2023-01-22T16:15:28.954Z,63.83
2023-01-22T16:18:00.020Z,60.50
2023-01-22T16:20:30.080Z,62.55
2023-01-22T16:22:59.496Z,58.07
2023-01-22T16:25:28.937Z,83.35
2023-01-22T16:30:27.259Z,98.42
2023-01-22T16:32:56.757Z,105.87
2023-01-22T16:35:26.404Z,86.53
2023-01-22T16:37:55.842Z,79.65
2023-01-22T16:40:25.268Z,66.70
2023-01-22T16:43:03.292Z,57.65
2023-01-22T16:45:36.867Z,57.80
2023-01-22T16:48:07.072Z,66.37
2023-01-22T16:50:36.636Z,67.87
2023-01-22T16:53:06.053Z,83.78
2023-01-22T16:55:35.630Z,63.70
2023-01-22T16:58:05.064Z,64.37
2023-01-22T17:00:35.213Z,64.37
2023-01-22T17:03:05.208Z,81.53
2023-01-22T17:05:34.715Z,73.05
2023-01-22T17:08:04.755Z,75.92
2023-01-22T17:13:06.251Z,68.55
2023-01-22T17:15:37.523Z,62.55
2023-01-22T17:20:35.597Z,57.08
2023-01-22T17:23:05.029Z,63.52
2023-01-22T17:30:31.573Z,55.95
2023-01-22T17:33:01.081Z,59.18
2023-01-22T17:35:30.580Z,62.50
2023-01-22T17:38:00.000Z,78.67
2023-01-22T17:40:29.941Z,67.05
2023-01-22T17:42:59.375Z,62.95
2023-01-22T17:45:28.808Z,65.17
2023-01-22T17:47:59.997Z,58.52
2023-01-22T17:50:29.657Z,61.45
2023-01-22T17:52:59.152Z,66.40
2023-01-22T17:55:31.024Z,69.00
2023-01-22T17:58:00.506Z,65.00
2023-01-22T18:03:01.273Z,56.88
2023-01-22T18:05:30.759Z,64.03
2023-01-22T18:08:00.641Z,59.75
2023-01-22T18:10:30.843Z,67.30
2023-01-22T18:13:00.369Z,70.30
2023-01-22T18:15:29.799Z,71.90
2023-01-22T18:17:59.254Z,77.27
2023-01-22T18:20:29.084Z,119.55
2023-01-22T18:22:58.530Z,130.12
2023-01-22T18:25:27.973Z,89.28
2023-01-22T18:27:57.905Z,88.42
2023-01-22T18:30:27.398Z,86.45
2023-01-22T18:32:56.863Z,77.37
2023-01-22T18:35:28.128Z,91.35
2023-01-22T18:37:59.497Z,72.70
2023-01-22T18:40:31.837Z,55.80
2023-01-22T18:43:01.260Z,57.23
2023-01-22T18:45:30.692Z,59.10
2023-01-22T18:48:00.701Z,56.57
2023-01-22T18:50:30.194Z,75.45
2023-01-22T18:53:01.615Z,61.75
2023-01-22T18:55:32.492Z,51.53
2023-01-22T18:58:04.276Z,62.67
2023-01-22T19:00:34.531Z,59.87
2023-01-22T19:03:04.141Z,56.40
2023-01-22T19:05:33.715Z,59.53
2023-01-22T19:08:03.153Z,61.75
2023-01-22T19:10:33.247Z,62.70
2023-01-22T19:13:02.674Z,63.48
2023-01-22T19:15:33.384Z,65.42
2023-01-22T19:18:03.725Z,72.12
2023-01-22T19:20:37.162Z,65.85
2023-01-22T19:23:07.150Z,58.48
2023-01-22T19:25:36.599Z,59.83
2023-01-22T19:28:06.497Z,63.08
2023-01-22T19:30:36.126Z,62.78
2023-01-22T19:33:05.616Z,67.47
2023-01-22T19:35:35.140Z,62.38
2023-01-22T19:38:05.431Z,68.22
2023-01-22T19:40:35.459Z,59.03
2023-01-22T19:43:05.647Z,62.67
2023-01-22T19:45:37.519Z,53.68
2023-01-22T19:48:07.392Z,56.37
2023-01-22T19:53:05.632Z,64.55
2023-01-22T19:58:07.923Z,79.75
2023-01-22T20:03:08.536Z,66.57
2023-01-22T20:05:42.558Z,74.33
2023-01-22T20:13:12.950Z,62.60
2023-01-22T20:18:12.763Z,73.00
2023-01-22T20:20:42.198Z,79.35
2023-01-22T20:28:10.912Z,70.95
2023-01-22T20:33:11.775Z,61.90
2023-01-22T20:35:44.828Z,64.77
2023-01-22T20:38:14.264Z,54.93
2023-01-22T20:40:45.420Z,53.65
2023-01-22T20:43:16.499Z,52.08
2023-01-22T20:45:47.195Z,57.83
2023-01-22T20:48:17.469Z,57.60
2023-01-22T20:50:47.008Z,66.72
2023-01-22T20:53:16.443Z,70.57
2023-01-22T20:55:45.879Z,67.00
2023-01-22T20:58:15.757Z,66.90
2023-01-22T21:00:45.193Z,61.87
2023-01-22T21:03:14.624Z,57.73
2023-01-22T21:05:44.446Z,56.13
2023-01-22T21:08:15.075Z,59.15
2023-01-22T21:10:45.175Z,60.75
2023-01-22T21:13:16.230Z,57.73
2023-01-22T21:35:35.303Z,52.85
2023-01-22T21:38:04.836Z,61.85
2023-01-22T21:40:34.256Z,74.03
2023-01-22T21:43:21.505Z,67.85
2023-01-22T21:46:08.836Z,60.73
2023-01-22T21:48:38.398Z,56.35
2023-01-22T21:51:09.116Z,56.48
2023-01-22T21:53:38.998Z,54.55
2023-01-22T21:56:08.963Z,47.78
2023-01-22T21:58:40.760Z,51.60
2023-01-22T22:01:11.047Z,49.57
2023-01-22T22:03:40.979Z,47.45
2023-01-22T22:06:13.443Z,49.90
2023-01-22T22:08:44.830Z,47.62
2023-01-22T22:11:15.099Z,53.47
2023-01-22T22:13:44.533Z,50.85
2023-01-22T22:16:14.280Z,49.85
2023-01-22T22:18:43.790Z,47.33
2023-01-22T22:21:14.165Z,53.48
2023-01-22T22:23:44.034Z,48.30
2023-01-22T22:26:13.557Z,48.85
2023-01-22T22:28:43.632Z,49.75
2023-01-22T22:31:15.909Z,49.67
2023-01-22T22:36:17.903Z,53.15
2023-01-22T22:38:48.116Z,54.67
2023-01-22T22:41:21.008Z,55.00
2023-01-22T22:43:52.954Z,57.67
2023-01-22T22:49:01.124Z,53.35
2023-01-22T22:51:33.991Z,51.80
2023-01-22T22:54:07.819Z,46.40
2023-01-22T22:56:37.251Z,49.80
2023-01-22T23:14:11.910Z,51.37
2023-01-22T23:16:43.701Z,47.20
2023-01-22T23:19:19.097Z,47.17
2023-01-22T23:21:54.751Z,48.60
2023-01-22T23:24:25.060Z,43.90
2023-01-22T23:26:55.188Z,47.13
2023-01-22T23:29:27.105Z,43.90
2023-01-22T23:31:57.605Z,52.00
2023-01-22T23:34:27.269Z,47.20
2023-01-22T23:36:56.695Z,48.87
2023-01-22T23:39:26.606Z,46.00
2023-01-22T23:41:56.148Z,44.55
2023-01-22T23:44:25.789Z,45.30
2023-01-22T23:46:55.730Z,46.08
2023-01-22T23:49:25.152Z,44.20
2023-01-22T23:51:55.761Z,46.73
2023-01-22T23:54:25.193Z,45.05
2023-01-22T23:56:54.624Z,44.35
2023-01-22T23:59:24.287Z,46.92
